createdAt,value
2019-01-09T00:01:54.764Z,68.29
2019-01-09T00:07:49.746Z,73.11
2019-01-09T00:13:44.775Z,66.62
2019-01-09T00:19:39.739Z,55.69
2019-01-09T00:25:34.744Z,58.77
2019-01-09T00:31:29.740Z,70.04
2019-01-09T00:37:24.753Z,60.46
2019-01-09T00:43:19.770Z,61.6
2019-01-09T00:49:14.769Z,59.12
2019-01-09T00:55:09.748Z,60.69
2019-01-09T01:01:04.806Z,70.87
2019-01-09T01:06:59.759Z,62.23
2019-01-09T01:12:54.760Z,51.78
2019-01-09T01:18:49.759Z,51.62
2019-01-09T01:24:44.773Z,44.32
2019-01-09T01:30:39.788Z,32.59
2019-01-09T01:36:34.760Z,22.49
2019-01-09T01:42:29.772Z,22.92
2019-01-09T01:48:24.784Z,30.09
2019-01-09T01:54:19.790Z,39.38
2019-01-09T02:00:14.778Z,52.1
2019-01-09T02:06:09.789Z,49.96
2019-01-09T02:12:04.826Z,51.1
2019-01-09T02:17:59.786Z,37.55
2019-01-09T02:23:54.811Z,26.73
2019-01-09T02:29:49.817Z,25.64
2019-01-09T02:35:44.787Z,25.56
2019-01-09T02:41:39.835Z,24.23
2019-01-09T02:47:34.825Z,24.63
2019-01-09T02:53:29.846Z,35.77
2019-01-09T02:59:24.822Z,36.66
2019-01-09T03:05:19.815Z,31.03
2019-01-09T03:11:14.836Z,31.76
2019-01-09T03:17:09.813Z,30.25
2019-01-09T03:23:04.820Z,23.8
2019-01-09T03:28:59.820Z,26.04
2019-01-09T03:34:54.831Z,21.15
2019-01-09T03:40:49.874Z,18.77
2019-01-09T03:46:44.830Z,23.78
2019-01-09T03:52:39.913Z,32.71
2019-01-09T03:58:34.870Z,19.03
2019-01-09T04:04:29.841Z,17.75
2019-01-09T04:10:24.902Z,21.03
2019-01-09T04:16:19.860Z,22.7
2019-01-09T04:22:14.852Z,26.67
2019-01-09T04:28:09.901Z,27.37
2019-01-09T04:34:04.905Z,39.91
2019-01-09T04:39:59.902Z,40.15
2019-01-09T04:45:54.923Z,30.41
2019-01-09T04:51:49.859Z,45.74
2019-01-09T04:57:44.900Z,46.75
2019-01-09T05:03:39.867Z,51.63
2019-01-09T05:09:34.871Z,54.62
2019-01-09T05:15:29.872Z,51.93
2019-01-09T05:21:24.920Z,56.33
2019-01-09T05:27:19.919Z,55.54
2019-01-09T05:33:14.888Z,58.67
2019-01-09T05:39:09.922Z,59.23
2019-01-09T05:45:04.892Z,64.67
2019-01-09T05:50:59.908Z,57.42
2019-01-09T05:56:54.910Z,56.86
2019-01-09T06:02:49.934Z,51.28
2019-01-09T06:08:44.977Z,49.58
2019-01-09T06:14:39.909Z,46.51
2019-01-09T06:20:34.925Z,47.51
2019-01-09T06:26:29.921Z,50.31
2019-01-09T06:32:24.913Z,51.67
2019-01-09T06:38:19.914Z,53.38
2019-01-09T06:44:14.933Z,52.18
2019-01-09T06:50:10.010Z,51.11
2019-01-09T06:56:04.990Z,51.51
2019-01-09T07:01:59.947Z,53.2
2019-01-09T07:07:54.934Z,53.48
2019-01-09T07:13:49.960Z,55.36
2019-01-09T07:19:44.976Z,54.21
2019-01-09T07:25:39.936Z,54.18
2019-01-09T07:31:34.986Z,53.44
2019-01-09T07:37:29.972Z,49.12
2019-01-09T07:43:24.947Z,49.87
2019-01-09T07:49:19.955Z,46.79
2019-01-09T07:55:14.969Z,48.46
2019-01-09T08:01:10.003Z,48.15
2019-01-09T08:07:04.977Z,47.08
2019-01-09T08:12:59.975Z,48.09
2019-01-09T08:18:54.965Z,52.36
2019-01-09T08:24:49.967Z,49.19
2019-01-09T08:30:44.961Z,52.47
2019-01-09T08:36:40.002Z,49.94
2019-01-09T08:42:34.978Z,46.78
2019-01-09T08:48:30.002Z,52.99
2019-01-09T08:54:25.000Z,48.51
2019-01-09T09:00:20.005Z,47.14
2019-01-09T09:06:14.986Z,52.08
2019-01-09T09:12:09.998Z,48.81
2019-01-09T09:18:05.002Z,53.68
2019-01-09T09:24:00.004Z,49.27
2019-01-09T09:29:55.017Z,48.9
2019-01-09T09:35:49.995Z,53.17
2019-01-09T09:41:45.024Z,51.22
2019-01-09T09:47:40.040Z,49.27
2019-01-09T09:53:35.009Z,52.57
2019-01-09T09:59:30.017Z,53.93
2019-01-09T10:05:25.018Z,52.93
2019-01-09T10:11:20.035Z,52.25
2019-01-09T10:17:15.027Z,50.8
2019-01-09T10:23:10.038Z,51.15
2019-01-09T10:29:05.082Z,57.67
2019-01-09T10:35:00.035Z,52.78
2019-01-09T10:40:55.042Z,57.07
2019-01-09T10:46:50.044Z,54.52
2019-01-09T10:52:45.027Z,52.61
2019-01-09T10:58:40.034Z,48.08
2019-01-09T11:04:35.035Z,56.63
2019-01-09T11:10:30.057Z,63.59
2019-01-09T11:16:25.080Z,64.42
2019-01-09T11:22:20.042Z,67.21
2019-01-09T11:28:15.083Z,67.78
2019-01-09T11:34:10.055Z,72.64
2019-01-09T11:40:05.077Z,69.29
2019-01-09T11:46:00.088Z,66.03
2019-01-09T11:51:55.106Z,67.78
2019-01-09T11:57:50.111Z,72.8
2019-01-09T12:03:45.101Z,76.14
2019-01-09T12:09:40.078Z,70.82
2019-01-09T12:15:35.081Z,78.82
2019-01-09T12:21:30.092Z,77.29
2019-01-09T12:27:25.097Z,71.75
2019-01-09T12:33:20.194Z,80.41
2019-01-09T12:39:15.099Z,81.23
2019-01-09T12:45:10.106Z,82.05
2019-01-09T12:51:05.144Z,80.77
2019-01-09T12:57:00.145Z,86.22
2019-01-09T13:02:55.107Z,86.26
2019-01-09T13:08:50.109Z,84.09
2019-01-09T13:14:45.118Z,87.82
2019-01-09T13:20:40.137Z,87.04
2019-01-09T13:26:35.143Z,86.77
2019-01-09T13:32:30.155Z,62.76
2019-01-09T13:38:25.139Z,79.3
2019-01-09T13:44:20.135Z,65.58
2019-01-09T13:50:15.149Z,9.06
2019-01-09T13:56:10.169Z,22.16
2019-01-09T14:02:05.179Z,16.83
2019-01-09T14:08:00.193Z,32.45
2019-01-09T14:13:55.145Z,15.81
2019-01-09T14:19:50.188Z,7.21
2019-01-09T14:25:45.135Z,13.55
2019-01-09T14:31:40.140Z,2.35
2019-01-09T14:37:35.151Z,6.37
2019-01-09T14:43:30.169Z,4.47
2019-01-09T14:49:25.172Z,2.48
2019-01-09T14:55:20.156Z,4.63
2019-01-09T15:01:15.150Z,16.48
2019-01-09T15:07:10.195Z,8.17
2019-01-09T15:13:05.173Z,9.13
2019-01-09T15:19:00.168Z,9.31
2019-01-09T15:24:55.184Z,4.04
2019-01-09T15:30:50.181Z,1.86
2019-01-09T15:36:45.191Z,3.33
2019-01-09T15:42:40.229Z,8.66
2019-01-09T15:48:35.213Z,4.57
2019-01-09T15:54:30.216Z,4.01
2019-01-09T16:00:25.211Z,4.98
2019-01-09T16:06:20.296Z,7.43
2019-01-09T16:12:15.215Z,6.64
2019-01-09T16:18:10.208Z,4.59
2019-01-09T16:24:05.233Z,4.31
2019-01-09T16:30:00.293Z,9.84
2019-01-09T16:35:55.231Z,6.38
2019-01-09T16:41:50.228Z,5.24
2019-01-09T16:47:45.284Z,5.51
2019-01-09T16:53:40.234Z,7.58
2019-01-09T16:59:35.233Z,4.62
2019-01-09T17:05:30.240Z,5.73
2019-01-09T17:11:25.230Z,3.94
2019-01-09T17:17:20.225Z,17.76
2019-01-09T17:23:15.270Z,17.56
2019-01-09T17:29:10.266Z,14.43
2019-01-09T17:35:05.235Z,8.4
2019-01-09T17:41:00.254Z,12.22
2019-01-09T17:46:55.243Z,25
2019-01-09T17:52:50.274Z,4.02
2019-01-09T17:58:45.243Z,26.35
2019-01-09T18:04:40.275Z,5.56
2019-01-09T18:10:35.289Z,5.86
2019-01-09T18:16:30.294Z,26.18
2019-01-09T18:22:25.289Z,14.63
2019-01-09T18:28:20.357Z,18.73
2019-01-09T18:34:15.287Z,9.5
2019-01-09T18:40:10.297Z,23.68
2019-01-09T18:46:05.290Z,8.32
2019-01-09T18:52:00.278Z,7.64
2019-01-09T18:57:55.296Z,19.76
2019-01-09T19:03:50.309Z,7.09
2019-01-09T19:09:45.308Z,37.2
2019-01-09T19:15:40.299Z,24.31
2019-01-09T19:21:35.287Z,63.78
2019-01-09T19:27:30.311Z,11
2019-01-09T19:33:25.332Z,23.16
2019-01-09T19:39:20.304Z,29.54
2019-01-09T19:45:15.319Z,9.49
2019-01-09T19:51:17.258Z,21.94
2019-01-09T19:57:05.319Z,18.02
2019-01-09T20:03:00.310Z,29.24
2019-01-09T20:08:55.343Z,19.69
2019-01-09T20:14:50.359Z,8.93
2019-01-09T20:20:45.428Z,6.65
2019-01-09T20:26:40.363Z,20.78
2019-01-09T20:32:35.338Z,18.56
2019-01-09T20:38:30.339Z,15.09
2019-01-09T20:44:25.380Z,3.29
2019-01-09T20:50:20.478Z,2.97
2019-01-09T20:56:15.348Z,5.59
2019-01-09T21:02:10.385Z,5.99
2019-01-09T21:08:05.351Z,6.16
2019-01-09T21:14:00.400Z,9.98
2019-01-09T21:19:55.395Z,9.31
2019-01-09T21:25:50.394Z,11.88
2019-01-09T21:31:45.406Z,7.47
2019-01-09T21:37:40.373Z,10.4
2019-01-09T21:43:35.369Z,20.5
2019-01-09T21:49:30.412Z,27.4
2019-01-09T21:55:25.385Z,35.72
2019-01-09T22:01:20.424Z,16.21
2019-01-09T22:07:15.504Z,26.7
2019-01-09T22:13:10.412Z,25.91
2019-01-09T22:19:11.828Z,4.74
2019-01-09T22:25:00.416Z,13.13
2019-01-09T22:30:55.381Z,11.58
2019-01-09T22:36:50.429Z,13.03
2019-01-09T22:42:45.393Z,6.59
2019-01-09T22:48:40.430Z,7.14
2019-01-09T22:54:36.402Z,6.49
2019-01-09T23:00:30.404Z,8.15
2019-01-09T23:06:25.500Z,7.04
2019-01-09T23:12:21.317Z,8.03
2019-01-09T23:18:15.470Z,7.66
2019-01-09T23:24:10.420Z,7.96
2019-01-09T23:30:05.452Z,6.91
2019-01-09T23:36:00.488Z,6.34
2019-01-09T23:41:55.442Z,12.38
2019-01-09T23:47:50.475Z,9.36
2019-01-09T23:53:45.442Z,4.41
2019-01-09T23:59:40.476Z,3.73
